createdAt,value
2024-05-09T00:00:49.769Z,50.81
2024-05-09T00:01:49.748Z,50.81
2024-05-09T00:02:49.694Z,50.62
2024-05-09T00:03:49.747Z,50.71
2024-05-09T00:04:49.805Z,50.81
2024-05-09T00:05:49.698Z,50.71
2024-05-09T00:06:49.681Z,50.71
2024-05-09T00:07:49.678Z,50.62
2024-05-09T00:08:49.692Z,50.62
2024-05-09T00:09:49.656Z,50.81
2024-05-09T00:10:49.780Z,50.90
2024-05-09T00:11:49.775Z,50.71
2024-05-09T00:12:49.652Z,50.71
2024-05-09T00:13:49.695Z,50.71
2024-05-09T00:14:49.640Z,50.71
2024-05-09T00:15:49.643Z,50.62
2024-05-09T00:16:49.654Z,50.71
2024-05-09T00:17:49.933Z,50.71
2024-05-09T00:18:49.751Z,50.71
2024-05-09T00:19:49.643Z,50.71
2024-05-09T00:20:49.700Z,50.71
2024-05-09T00:21:49.616Z,50.71
2024-05-09T00:22:49.639Z,50.90
2024-05-09T00:23:49.609Z,50.90
2024-05-09T00:24:49.603Z,50.81
2024-05-09T00:25:49.612Z,50.81
2024-05-09T00:26:49.596Z,50.71
2024-05-09T00:27:49.591Z,50.62
2024-05-09T00:28:49.599Z,50.71
2024-05-09T00:29:49.591Z,50.71
2024-05-09T00:30:49.592Z,50.81
2024-05-09T00:31:49.753Z,50.81
2024-05-09T00:32:49.673Z,50.71
2024-05-09T00:33:49.692Z,50.90
2024-05-09T00:34:49.613Z,50.71
2024-05-09T00:35:49.571Z,50.71
2024-05-09T00:36:49.554Z,50.90
2024-05-09T00:37:49.577Z,50.62
2024-05-09T00:38:49.550Z,50.62
2024-05-09T00:39:49.539Z,50.90
2024-05-09T00:40:49.610Z,50.62
2024-05-09T00:41:49.596Z,50.90
2024-05-09T00:42:49.542Z,50.90
2024-05-09T00:43:49.630Z,50.71
2024-05-09T00:44:49.530Z,51.00
2024-05-09T00:45:49.534Z,50.90
2024-05-09T00:46:49.555Z,51.10
2024-05-09T00:47:49.760Z,51.10
2024-05-09T00:48:49.596Z,51.00
2024-05-09T00:49:49.578Z,51.10
2024-05-09T00:50:49.598Z,51.10
2024-05-09T00:51:49.509Z,51.20
2024-05-09T00:52:49.525Z,51.29
2024-05-09T00:53:49.499Z,50.52
2024-05-09T00:54:49.489Z,51.20
2024-05-09T00:55:49.503Z,51.10
2024-05-09T00:56:49.486Z,50.62
2024-05-09T00:57:49.474Z,50.62
2024-05-09T00:58:49.495Z,51.29
2024-05-09T00:59:49.464Z,51.10
2024-05-09T01:00:56.590Z,50.62
2024-05-09T01:01:49.570Z,51.20
2024-05-09T01:02:49.600Z,50.62
2024-05-09T01:03:51.306Z,51.20
2024-05-09T01:04:49.726Z,51.17
2024-05-09T01:05:56.632Z,51.29
2024-05-09T01:06:49.447Z,50.62
2024-05-09T01:07:49.435Z,50.49
2024-05-09T01:08:49.437Z,51.26
2024-05-09T01:09:49.419Z,50.62
2024-05-09T01:10:49.558Z,51.26
2024-05-09T01:11:49.542Z,51.17
2024-05-09T01:12:49.421Z,51.17
2024-05-09T01:13:49.450Z,51.17
2024-05-09T01:14:49.399Z,51.17
2024-05-09T01:15:49.399Z,50.69
2024-05-09T01:16:49.456Z,50.59
2024-05-09T01:17:49.615Z,51.26
2024-05-09T01:18:49.478Z,51.17
2024-05-09T01:19:49.444Z,50.49
2024-05-09T01:20:49.405Z,51.17
2024-05-09T01:21:49.369Z,51.26
2024-05-09T01:22:49.438Z,51.17
2024-05-09T01:23:49.367Z,50.49
2024-05-09T01:24:49.353Z,51.17
2024-05-09T01:25:49.414Z,51.26
2024-05-09T01:26:49.345Z,50.40
2024-05-09T01:27:49.340Z,51.17
2024-05-09T01:28:49.368Z,51.07
2024-05-09T01:29:49.346Z,50.59
2024-05-09T01:30:49.364Z,50.49
2024-05-09T01:31:49.435Z,50.49
2024-05-09T01:32:49.629Z,51.07
2024-05-09T01:33:49.420Z,51.07
2024-05-09T01:34:49.362Z,50.40
2024-05-09T01:35:49.327Z,51.07
2024-05-09T01:36:49.313Z,51.07
2024-05-09T01:37:49.344Z,50.59
2024-05-09T01:38:49.300Z,51.17
2024-05-09T01:39:49.298Z,50.59
2024-05-09T01:40:49.337Z,50.49
2024-05-09T01:41:49.289Z,50.98
2024-05-09T01:42:49.297Z,50.98
2024-05-09T01:43:49.284Z,50.59
2024-05-09T01:44:49.287Z,51.05
2024-05-09T01:45:49.282Z,50.40
2024-05-09T01:46:49.295Z,50.88
2024-05-09T01:47:49.391Z,50.59
2024-05-09T01:48:49.431Z,50.57
2024-05-09T01:49:49.301Z,50.59
2024-05-09T01:50:49.291Z,50.49
2024-05-09T01:51:49.264Z,51.07
2024-05-09T01:52:49.256Z,50.47
2024-05-09T01:53:49.239Z,51.07
2024-05-09T01:54:49.238Z,50.66
2024-05-09T01:55:49.241Z,51.07
2024-05-09T01:56:49.218Z,50.40
2024-05-09T01:57:49.228Z,51.07
2024-05-09T01:58:49.271Z,50.98
2024-05-09T01:59:49.235Z,50.98
2024-05-09T02:00:49.228Z,50.40
2024-05-09T02:01:56.679Z,51.07
2024-05-09T02:02:49.276Z,51.17
2024-05-09T02:03:49.434Z,50.40
2024-05-09T02:04:49.275Z,50.40
2024-05-09T02:05:49.289Z,51.17
2024-05-09T02:06:49.189Z,51.07
2024-05-09T02:07:49.244Z,50.49
2024-05-09T02:08:49.163Z,51.07
2024-05-09T02:09:49.163Z,50.49
2024-05-09T02:10:49.668Z,51.26
2024-05-09T02:11:49.254Z,51.07
2024-05-09T02:12:49.150Z,51.07
2024-05-09T02:13:49.161Z,50.40
2024-05-09T02:14:49.142Z,50.40
2024-05-09T02:15:49.137Z,51.07
2024-05-09T02:16:49.190Z,51.07
2024-05-09T02:17:49.338Z,50.30
2024-05-09T02:18:49.335Z,50.59
2024-05-09T02:19:49.147Z,50.40
2024-05-09T02:20:49.141Z,50.59
2024-05-09T02:21:49.113Z,51.17
2024-05-09T02:22:49.123Z,51.26
2024-05-09T02:23:49.119Z,50.59
2024-05-09T02:24:49.103Z,51.26
2024-05-09T02:25:49.114Z,51.10
2024-05-09T02:26:49.100Z,51.26
2024-05-09T02:27:49.091Z,51.29
2024-05-09T02:28:49.158Z,50.59
2024-05-09T02:29:49.085Z,51.20
2024-05-09T02:30:49.086Z,51.10
2024-05-09T02:31:49.140Z,51.10
2024-05-09T02:32:49.216Z,50.71
2024-05-09T02:33:49.366Z,51.10
2024-05-09T02:34:49.076Z,50.90
2024-05-09T02:35:49.066Z,50.81
2024-05-09T02:36:49.052Z,50.71
2024-05-09T02:37:49.098Z,51.10
2024-05-09T02:38:49.069Z,50.90
2024-05-09T02:39:49.043Z,50.62
2024-05-09T02:40:49.078Z,50.90
2024-05-09T02:41:49.028Z,50.90
2024-05-09T02:42:49.029Z,50.71
2024-05-09T02:43:49.057Z,50.71
2024-05-09T02:44:49.028Z,50.90
2024-05-09T02:45:49.019Z,50.62
2024-05-09T02:46:49.062Z,50.71
2024-05-09T02:47:49.255Z,50.81
2024-05-09T02:48:49.060Z,50.71
2024-05-09T02:49:49.100Z,50.71
2024-05-09T02:50:49.040Z,50.71
2024-05-09T02:51:48.992Z,50.90
2024-05-09T02:52:48.991Z,50.62
2024-05-09T02:53:49.008Z,50.81
2024-05-09T02:54:48.990Z,50.81
2024-05-09T02:55:49.019Z,50.71
2024-05-09T02:56:48.983Z,50.81
2024-05-09T02:57:48.988Z,50.81
2024-05-09T02:58:48.994Z,50.62
2024-05-09T02:59:48.962Z,50.71
2024-05-09T03:00:49.026Z,50.71
2024-05-09T03:01:49.082Z,50.71
2024-05-09T03:02:49.158Z,50.81
2024-05-09T03:03:49.087Z,50.90
2024-05-09T03:04:49.133Z,50.81
2024-05-09T03:05:48.976Z,50.81
2024-05-09T03:06:48.944Z,50.71
2024-05-09T03:07:48.975Z,50.52
2024-05-09T03:08:48.936Z,50.81
2024-05-09T03:09:48.948Z,50.81
2024-05-09T03:10:48.945Z,50.71
2024-05-09T03:11:49.010Z,50.71
2024-05-09T03:12:48.911Z,50.81
2024-05-09T03:13:48.969Z,50.71
2024-05-09T03:14:48.918Z,50.62
2024-05-09T03:15:48.906Z,50.81
2024-05-09T03:16:48.968Z,49.94
2024-05-09T03:17:49.057Z,50.81
2024-05-09T03:18:49.001Z,50.71
2024-05-09T03:19:48.948Z,50.81
2024-05-09T03:20:48.978Z,50.81
2024-05-09T03:21:48.879Z,50.81
2024-05-09T03:22:48.936Z,49.84
2024-05-09T03:23:48.899Z,50.81
2024-05-09T03:24:48.867Z,50.81
2024-05-09T03:25:48.913Z,50.71
2024-05-09T03:26:48.871Z,50.71
2024-05-09T03:27:48.854Z,50.81
2024-05-09T03:28:48.946Z,50.62
2024-05-09T03:29:48.852Z,50.71
2024-05-09T03:30:48.841Z,50.71
2024-05-09T03:31:48.965Z,50.81
2024-05-09T03:32:49.134Z,50.71
2024-05-09T03:33:49.053Z,50.23
2024-05-09T03:34:48.875Z,50.81
2024-05-09T03:35:49.594Z,50.71
2024-05-09T03:36:48.817Z,50.71
2024-05-09T03:37:48.858Z,50.81
2024-05-09T03:38:48.812Z,50.13
2024-05-09T03:39:48.981Z,50.71
2024-05-09T03:40:49.639Z,50.90
2024-05-09T03:41:48.795Z,50.71
2024-05-09T03:42:48.789Z,50.90
2024-05-09T03:43:48.803Z,50.81
2024-05-09T03:44:48.807Z,50.71
2024-05-09T03:45:48.798Z,50.90
2024-05-09T03:46:48.822Z,50.90
2024-05-09T03:47:49.121Z,50.81
2024-05-09T03:48:48.832Z,50.23
2024-05-09T03:49:48.819Z,50.90
2024-05-09T03:50:48.835Z,50.81
2024-05-09T03:51:48.770Z,50.52
2024-05-09T03:52:48.831Z,50.23
2024-05-09T03:53:48.845Z,50.52
2024-05-09T03:54:48.755Z,50.71
2024-05-09T03:55:48.848Z,50.71
2024-05-09T03:56:48.749Z,50.32
2024-05-09T03:57:48.729Z,50.81
2024-05-09T03:58:48.743Z,50.90
2024-05-09T03:59:48.719Z,50.71
2024-05-09T04:00:48.775Z,50.81
2024-05-09T04:01:48.745Z,50.32
2024-05-09T04:02:48.779Z,50.71
2024-05-09T04:03:48.807Z,50.62
2024-05-09T04:04:48.817Z,50.13
2024-05-09T04:05:48.738Z,50.23
2024-05-09T04:06:48.696Z,50.23
2024-05-09T04:07:48.750Z,50.71
2024-05-09T04:08:48.743Z,50.71
2024-05-09T04:09:48.681Z,50.32
2024-05-09T04:10:48.851Z,50.42
2024-05-09T04:11:48.744Z,50.62
2024-05-09T04:12:48.676Z,50.62
2024-05-09T04:13:48.721Z,50.32
2024-05-09T04:14:48.661Z,50.42
2024-05-09T04:15:48.657Z,50.32
2024-05-09T04:16:48.669Z,50.32
2024-05-09T04:17:49.492Z,50.62
2024-05-09T04:18:48.712Z,50.32
2024-05-09T04:19:48.679Z,50.32
2024-05-09T04:20:48.691Z,50.52
2024-05-09T04:21:48.639Z,50.32
2024-05-09T04:22:48.670Z,50.23
2024-05-09T04:23:48.644Z,50.42
2024-05-09T04:24:48.619Z,50.52
2024-05-09T04:25:48.688Z,50.42
2024-05-09T04:26:48.767Z,50.23
2024-05-09T04:27:48.606Z,50.32
2024-05-09T04:28:48.679Z,50.42
2024-05-09T04:29:48.603Z,50.52
2024-05-09T04:30:48.609Z,50.42
2024-05-09T04:31:48.620Z,50.42
2024-05-09T04:32:48.742Z,50.62
2024-05-09T04:33:48.713Z,50.13
2024-05-09T04:34:48.607Z,50.71
2024-05-09T04:35:48.580Z,50.23
2024-05-09T04:36:48.570Z,50.52
2024-05-09T04:37:48.614Z,50.52
2024-05-09T04:50:35.136Z,50.62
2024-05-09T04:51:26.899Z,49.91
2024-05-09T04:52:26.900Z,50.11
2024-05-09T04:53:26.915Z,49.91
2024-05-09T04:54:34.139Z,49.91
2024-05-09T04:55:26.882Z,50.21
2024-05-09T04:56:26.896Z,49.91
2024-05-09T04:57:26.865Z,50.49
2024-05-09T04:58:26.862Z,49.91
2024-05-09T04:59:27.024Z,50.01
2024-05-09T05:00:32.666Z,50.21
2024-05-09T05:01:26.902Z,50.30
2024-05-09T05:02:26.931Z,50.21
2024-05-09T05:03:26.982Z,50.30
2024-05-09T05:04:27.000Z,50.30
2024-05-09T05:05:26.906Z,50.30
2024-05-09T05:06:26.824Z,50.40
2024-05-09T05:07:26.826Z,50.30
2024-05-09T05:08:26.871Z,50.59
2024-05-09T05:09:26.816Z,50.40
2024-05-09T05:10:33.581Z,50.40
2024-05-09T05:11:26.875Z,50.40
2024-05-09T05:12:26.849Z,50.49
2024-05-09T05:13:26.796Z,50.40
2024-05-09T05:14:26.944Z,50.49
2024-05-09T05:15:26.779Z,50.69
2024-05-09T05:16:26.778Z,50.59
2024-05-09T05:17:26.842Z,50.21
2024-05-09T05:18:27.389Z,50.30
2024-05-09T05:19:26.864Z,50.21
2024-05-09T05:20:32.894Z,50.21
2024-05-09T05:21:27.046Z,50.59
2024-05-09T05:22:26.756Z,50.59
2024-05-09T05:23:26.832Z,50.40
2024-05-09T05:24:26.743Z,50.40
2024-05-09T05:25:26.741Z,50.59
2024-05-09T05:26:26.742Z,50.59
2024-05-09T05:27:26.725Z,50.49
2024-05-09T05:28:26.733Z,50.49
2024-05-09T05:29:26.753Z,50.49
2024-05-09T05:30:32.496Z,50.40
2024-05-09T05:31:26.796Z,50.49
2024-05-09T05:32:26.878Z,50.40
2024-05-09T05:33:27.034Z,50.69
2024-05-09T05:34:26.704Z,50.59
2024-05-09T05:35:26.955Z,50.21
2024-05-09T05:36:26.698Z,50.40
2024-05-09T05:37:26.690Z,50.59
2024-05-09T05:38:28.380Z,50.40
2024-05-09T05:39:26.679Z,50.42
2024-05-09T05:40:33.352Z,50.30
2024-05-09T05:41:26.713Z,50.40
2024-05-09T05:42:26.662Z,50.32
2024-05-09T05:43:27.575Z,50.32
2024-05-09T05:44:26.768Z,50.32
2024-05-09T05:45:26.658Z,50.32
2024-05-09T05:46:26.646Z,50.23
2024-05-09T05:47:26.802Z,50.32
2024-05-09T05:48:26.789Z,50.23
2024-05-09T05:49:26.890Z,50.13
2024-05-09T05:50:32.606Z,50.23
2024-05-09T05:51:26.647Z,50.13
2024-05-09T05:52:26.625Z,50.23
2024-05-09T05:53:26.640Z,50.32
2024-05-09T05:54:26.627Z,49.94
2024-05-09T05:55:26.619Z,50.23
2024-05-09T05:56:26.727Z,50.62
2024-05-09T05:57:26.606Z,50.62
2024-05-09T05:58:26.598Z,49.94
2024-05-09T05:59:26.658Z,50.23
2024-05-09T06:00:34.361Z,50.06
2024-05-09T06:01:26.696Z,50.35
2024-05-09T06:02:26.734Z,50.06
2024-05-09T06:03:26.622Z,50.16
2024-05-09T06:04:26.602Z,50.16
2024-05-09T06:05:27.744Z,50.06
2024-05-09T06:06:26.586Z,50.54
2024-05-09T06:07:26.567Z,49.68
2024-05-09T06:08:30.157Z,49.68
2024-05-09T06:09:26.562Z,49.90
2024-05-09T06:10:35.030Z,50.16
2024-05-09T06:11:26.651Z,50.18
2024-05-09T06:12:26.644Z,49.90
2024-05-09T06:13:26.547Z,49.70
2024-05-09T06:14:26.746Z,50.18
2024-05-09T06:15:26.549Z,49.99
2024-05-09T06:16:26.541Z,49.90
2024-05-09T06:17:26.746Z,49.90
2024-05-09T06:18:26.817Z,49.90
2024-05-09T06:19:26.770Z,49.70
2024-05-09T06:20:34.381Z,49.82
2024-05-09T06:21:26.541Z,49.60
2024-05-09T06:22:26.524Z,49.63
2024-05-09T06:23:26.570Z,49.63
2024-05-09T06:24:26.511Z,49.63
2024-05-09T06:25:26.508Z,49.63
2024-05-09T06:26:26.588Z,49.82
2024-05-09T06:27:26.507Z,49.63
2024-05-09T06:28:26.500Z,49.53
2024-05-09T06:29:26.681Z,49.63
2024-05-09T06:30:35.190Z,49.63
2024-05-09T06:31:26.499Z,49.73
2024-05-09T06:32:26.602Z,49.73
2024-05-09T06:33:26.849Z,49.95
2024-05-09T06:34:26.670Z,49.46
2024-05-09T06:35:26.570Z,49.37
2024-05-09T06:36:26.487Z,49.55
2024-05-09T06:37:26.491Z,49.37
2024-05-09T06:38:26.496Z,49.46
2024-05-09T06:39:26.483Z,49.46
2024-05-09T06:40:35.747Z,49.65
2024-05-09T06:41:26.609Z,49.65
2024-05-09T06:42:26.565Z,49.85
2024-05-09T06:43:26.463Z,49.17
2024-05-09T06:44:26.547Z,49.75
2024-05-09T06:45:26.452Z,49.37
2024-05-09T06:46:26.450Z,49.29
2024-05-09T06:47:26.530Z,49.49
2024-05-09T06:48:26.672Z,49.68
2024-05-09T06:49:26.616Z,49.49
2024-05-09T06:50:28.419Z,49.29
2024-05-09T06:51:26.444Z,49.49
2024-05-09T06:52:26.454Z,49.39
2024-05-09T06:53:26.535Z,49.19
2024-05-09T06:54:26.435Z,49.19
2024-05-09T06:55:26.434Z,49.22
2024-05-09T06:56:26.621Z,49.41
2024-05-09T06:57:26.427Z,49.19
2024-05-09T06:58:26.459Z,49.22
2024-05-09T06:59:26.458Z,49.12
2024-05-09T07:00:35.155Z,49.12
2024-05-09T07:01:26.531Z,49.02
2024-05-09T07:02:26.531Z,49.02
2024-05-09T07:03:26.752Z,49.32
2024-05-09T07:04:26.763Z,49.41
2024-05-09T07:05:26.768Z,49.22
2024-05-09T07:06:26.416Z,49.02
2024-05-09T07:07:26.412Z,49.02
2024-05-09T07:08:26.453Z,49.34
2024-05-09T07:09:26.419Z,48.93
2024-05-09T07:10:32.834Z,49.05
2024-05-09T07:11:26.580Z,49.05
2024-05-09T07:12:26.507Z,48.95
2024-05-09T07:13:26.402Z,49.15
2024-05-09T07:14:26.581Z,49.15
2024-05-09T07:15:26.404Z,49.05
2024-05-09T07:16:26.400Z,48.86
2024-05-09T07:17:26.556Z,48.95
2024-05-09T07:18:26.645Z,49.05
2024-05-09T07:19:26.474Z,48.76
2024-05-09T07:20:32.240Z,49.05
2024-05-09T07:21:26.476Z,49.05
2024-05-09T07:22:26.395Z,49.15
2024-05-09T07:23:26.446Z,48.86
2024-05-09T07:24:26.403Z,48.86
2024-05-09T07:25:26.418Z,48.88
2024-05-09T07:26:26.444Z,48.97
2024-05-09T07:27:26.387Z,49.07
2024-05-09T07:28:26.431Z,48.88
2024-05-09T07:29:26.489Z,48.69
2024-05-09T07:30:32.883Z,48.88
2024-05-09T07:31:26.374Z,48.88
2024-05-09T07:32:26.475Z,48.88
2024-05-09T07:33:26.612Z,48.79
2024-05-09T07:34:26.584Z,48.79
2024-05-09T07:35:26.425Z,48.79
2024-05-09T07:36:26.384Z,48.88
2024-05-09T07:37:26.366Z,48.69
2024-05-09T07:38:26.458Z,48.69
2024-05-09T07:39:26.365Z,48.79
2024-05-09T07:40:33.247Z,48.79
2024-05-09T07:41:26.388Z,48.88
2024-05-09T07:42:26.359Z,48.79
2024-05-09T07:43:26.362Z,48.59
2024-05-09T07:44:26.461Z,48.61
2024-05-09T07:45:43.338Z,48.61
2024-05-09T07:47:14.600Z,48.52
2024-05-09T07:50:00.297Z,48.52
2024-05-09T07:53:39.718Z,48.52
2024-05-09T07:54:26.549Z,48.52
2024-05-09T07:55:26.448Z,48.42
2024-05-09T07:56:26.664Z,48.42
2024-05-09T07:57:26.358Z,48.32
2024-05-09T07:58:26.356Z,48.42
2024-05-09T07:59:26.360Z,48.42
2024-05-09T08:00:31.102Z,48.32
2024-05-09T08:01:26.999Z,48.44
2024-05-09T08:02:26.567Z,48.44
2024-05-09T08:03:26.402Z,48.35
2024-05-09T08:04:26.766Z,48.25
2024-05-09T08:05:26.414Z,48.35
2024-05-09T08:06:26.457Z,48.44
2024-05-09T08:07:26.340Z,48.54
2024-05-09T08:08:26.336Z,48.44
2024-05-09T08:09:26.382Z,48.44
2024-05-09T08:10:28.973Z,48.54
2024-05-09T08:11:26.406Z,48.35
2024-05-09T08:12:26.366Z,48.35
2024-05-09T08:13:26.342Z,48.06
2024-05-09T08:14:26.329Z,48.15
2024-05-09T08:15:26.590Z,48.15
2024-05-09T08:16:26.537Z,48.06
2024-05-09T08:17:26.423Z,48.15
2024-05-09T08:18:26.536Z,48.18
2024-05-09T08:19:26.377Z,48.06
2024-05-09T08:20:31.146Z,48.15
2024-05-09T08:21:26.402Z,48.37
2024-05-09T08:22:26.324Z,48.18
2024-05-09T08:23:26.323Z,48.18
2024-05-09T08:24:26.395Z,48.08
2024-05-09T08:25:26.366Z,48.18
2024-05-09T08:26:26.335Z,48.08
2024-05-09T08:27:26.406Z,48.18
2024-05-09T08:28:26.423Z,48.18
2024-05-09T08:29:26.335Z,48.18
2024-05-09T08:30:33.158Z,48.08
2024-05-09T08:31:26.406Z,47.98
2024-05-09T08:32:26.354Z,48.18
2024-05-09T08:33:26.415Z,47.98
2024-05-09T08:34:26.392Z,48.08
2024-05-09T08:35:26.409Z,47.98
2024-05-09T08:36:26.439Z,48.08
2024-05-09T08:37:30.972Z,47.98
2024-05-09T08:38:26.327Z,47.98
2024-05-09T08:39:26.356Z,47.98
2024-05-09T08:40:33.684Z,48.00
2024-05-09T08:41:26.317Z,48.00
2024-05-09T08:42:26.331Z,47.91
2024-05-09T08:43:26.359Z,48.00
2024-05-09T08:44:26.325Z,48.00
2024-05-09T08:45:26.470Z,47.91
2024-05-09T08:46:26.329Z,47.81
2024-05-09T08:47:26.438Z,47.81
2024-05-09T08:48:26.582Z,47.81
2024-05-09T08:49:26.435Z,47.91
2024-05-09T08:50:32.500Z,47.91
2024-05-09T08:51:26.318Z,47.72
2024-05-09T08:52:26.313Z,47.91
2024-05-09T08:53:26.314Z,47.91
2024-05-09T08:54:26.308Z,47.91
2024-05-09T08:55:26.309Z,47.93
2024-05-09T08:56:26.318Z,47.83
2024-05-09T08:57:26.339Z,47.93
2024-05-09T08:58:26.389Z,48.03
2024-05-09T08:59:26.332Z,47.93
2024-05-09T09:00:34.122Z,47.93
2024-05-09T09:01:26.398Z,47.93
2024-05-09T09:02:26.556Z,47.83
2024-05-09T09:03:26.407Z,47.83
2024-05-09T09:04:26.401Z,47.83
2024-05-09T09:05:26.554Z,47.74
2024-05-09T09:06:26.315Z,47.74
2024-05-09T09:07:26.362Z,47.83
2024-05-09T09:08:26.341Z,47.74
2024-05-09T09:09:26.348Z,47.74
2024-05-09T09:10:31.801Z,47.83
2024-05-09T09:11:26.337Z,47.83
2024-05-09T09:12:26.318Z,47.74
2024-05-09T09:13:26.339Z,47.66
2024-05-09T09:14:26.309Z,47.83
2024-05-09T09:15:26.325Z,47.86
2024-05-09T09:16:26.412Z,47.66
2024-05-09T09:17:26.439Z,47.66
2024-05-09T09:18:26.628Z,47.86
2024-05-09T09:19:26.432Z,47.86
2024-05-09T09:20:33.762Z,47.57
2024-05-09T09:21:26.308Z,47.76
2024-05-09T09:22:26.317Z,47.76
2024-05-09T09:23:26.316Z,47.76
2024-05-09T09:24:26.323Z,47.66
2024-05-09T09:25:26.314Z,47.76
2024-05-09T09:26:26.320Z,47.57
2024-05-09T09:27:26.349Z,47.66
2024-05-09T09:28:26.312Z,47.76
2024-05-09T09:29:26.322Z,47.86
2024-05-09T09:30:34.897Z,47.78
2024-05-09T09:31:26.402Z,47.76
2024-05-09T09:32:26.433Z,47.69
2024-05-09T09:33:26.410Z,47.69
2024-05-09T09:34:26.548Z,47.69
2024-05-09T09:35:26.316Z,47.69
2024-05-09T09:36:26.317Z,47.59
2024-05-09T09:37:26.325Z,47.59
2024-05-09T09:38:26.332Z,47.78
2024-05-09T09:39:26.323Z,47.69
2024-05-09T09:40:31.948Z,47.59
2024-05-09T09:41:26.321Z,47.81
2024-05-09T09:42:26.320Z,47.59
2024-05-09T09:43:26.441Z,47.78
2024-05-09T09:44:26.332Z,47.81
2024-05-09T09:45:26.324Z,47.81
2024-05-09T09:46:26.498Z,47.71
2024-05-09T09:47:26.440Z,47.81
2024-05-09T09:48:26.484Z,47.81
2024-05-09T09:49:26.395Z,47.81
2024-05-09T09:50:33.489Z,47.81
2024-05-09T09:51:26.330Z,47.71
2024-05-09T09:52:26.407Z,47.61
2024-05-09T09:53:26.346Z,47.81
2024-05-09T09:54:26.347Z,47.71
2024-05-09T09:55:26.402Z,47.64
2024-05-09T09:56:26.335Z,47.71
2024-05-09T09:57:26.339Z,47.64
2024-05-09T09:58:26.366Z,47.44
2024-05-09T09:59:26.344Z,47.74
2024-05-09T10:00:32.019Z,47.64
2024-05-09T10:01:26.424Z,47.74
2024-05-09T10:02:26.463Z,47.44
2024-05-09T10:03:26.526Z,47.34
2024-05-09T10:04:26.524Z,47.64
2024-05-09T10:05:26.792Z,47.54
2024-05-09T10:06:26.348Z,47.56
2024-05-09T10:07:26.354Z,47.47
2024-05-09T10:08:26.352Z,47.27
2024-05-09T10:09:26.361Z,47.47
2024-05-09T10:10:31.648Z,47.47
2024-05-09T10:11:26.399Z,47.47
2024-05-09T10:12:26.396Z,47.56
2024-05-09T10:13:26.484Z,47.47
2024-05-09T10:14:26.383Z,47.47
2024-05-09T10:15:26.368Z,47.10
2024-05-09T10:16:26.478Z,47.30
2024-05-09T10:17:26.462Z,46.91
2024-05-09T10:18:29.331Z,47.39
2024-05-09T10:19:26.507Z,47.10
2024-05-09T10:20:30.861Z,47.10
2024-05-09T10:21:26.371Z,47.00
2024-05-09T10:22:26.400Z,47.00
2024-05-09T10:23:26.395Z,47.20
2024-05-09T10:24:26.384Z,47.00
2024-05-09T10:25:26.467Z,47.22
2024-05-09T10:26:26.410Z,47.13
2024-05-09T10:27:26.386Z,47.22
2024-05-09T10:28:26.396Z,47.42
2024-05-09T10:29:26.404Z,47.42
2024-05-09T10:30:33.719Z,46.73
2024-05-09T10:31:26.455Z,46.86
2024-05-09T10:32:26.495Z,47.13
2024-05-09T10:33:26.471Z,47.05
2024-05-09T10:34:26.708Z,47.05
2024-05-09T10:35:26.403Z,46.95
2024-05-09T10:36:26.406Z,46.66
2024-05-09T10:37:26.566Z,46.66
2024-05-09T16:36:50.173Z,44.10
2024-05-09T16:37:50.145Z,44.01
2024-05-09T16:38:50.140Z,43.81
2024-05-09T16:39:50.165Z,44.09
2024-05-09T16:40:50.281Z,43.99
2024-05-09T16:41:50.145Z,44.28
2024-05-09T16:42:50.198Z,44.18
2024-05-09T16:43:50.126Z,44.57
2024-05-09T16:44:50.126Z,44.38
2024-05-09T16:45:50.287Z,44.76
2024-05-09T16:46:50.166Z,44.57
2024-05-09T16:47:50.181Z,44.86
2024-05-09T16:48:50.195Z,44.94
2024-05-09T16:49:50.119Z,44.94
2024-05-09T16:50:50.126Z,45.14
2024-05-09T16:51:50.131Z,45.04
2024-05-09T16:52:50.137Z,44.94
2024-05-09T16:53:50.148Z,45.04
2024-05-09T16:54:50.238Z,45.14
2024-05-09T16:55:50.197Z,44.94
2024-05-09T16:56:50.181Z,45.14
2024-05-09T16:57:50.189Z,44.84
2024-05-09T16:58:50.126Z,44.94
2024-05-09T16:59:50.128Z,44.94
2024-05-09T17:00:50.422Z,44.84
2024-05-09T17:01:50.164Z,45.21
2024-05-09T17:02:50.164Z,45.23
2024-05-09T17:03:50.428Z,45.52
2024-05-09T17:04:50.159Z,45.40
2024-05-09T17:05:50.384Z,45.60
2024-05-09T17:06:50.147Z,45.50
2024-05-09T17:07:50.136Z,45.11
2024-05-09T17:08:50.144Z,45.60
2024-05-09T17:09:50.198Z,45.69
2024-05-09T17:10:50.489Z,45.60
2024-05-09T17:11:50.242Z,45.60
2024-05-09T17:12:50.229Z,45.60
2024-05-09T17:13:50.127Z,45.21
2024-05-09T17:14:50.124Z,45.18
2024-05-09T17:15:50.476Z,45.48
2024-05-09T17:16:50.179Z,45.50
2024-05-09T17:17:50.219Z,45.48
2024-05-09T17:18:50.211Z,45.77
2024-05-09T17:19:50.119Z,45.87
2024-05-09T17:20:50.157Z,45.77
2024-05-09T17:21:50.161Z,45.77
2024-05-09T17:22:50.154Z,45.77
2024-05-09T17:23:50.141Z,45.77
2024-05-09T17:24:50.257Z,46.15
2024-05-09T17:25:50.135Z,45.57
2024-05-09T17:26:50.145Z,45.67
2024-05-09T17:27:50.218Z,45.67
2024-05-09T17:28:50.127Z,45.57
2024-05-09T17:29:50.138Z,45.87
2024-05-09T17:30:50.212Z,45.97
2024-05-09T17:31:50.141Z,45.77
2024-05-09T17:32:50.220Z,45.87
2024-05-09T17:33:50.328Z,45.87
2024-05-09T17:34:50.218Z,45.84
2024-05-09T17:35:50.171Z,45.94
2024-05-09T17:36:50.143Z,45.75
2024-05-09T17:37:50.136Z,45.55
2024-05-09T17:38:50.124Z,46.04
2024-05-09T17:39:50.195Z,45.94
2024-05-09T17:40:50.180Z,45.65
2024-05-09T17:41:50.123Z,45.55
2024-05-09T17:42:50.153Z,46.14
2024-05-09T17:43:50.128Z,46.23
2024-05-09T17:44:50.123Z,46.33
2024-05-09T17:45:50.229Z,45.94
2024-05-09T17:46:50.132Z,45.94
2024-05-09T17:47:50.211Z,45.94
2024-05-09T17:48:50.173Z,46.52
2024-05-09T17:49:50.219Z,45.94
2024-05-09T17:50:50.128Z,45.92
2024-05-09T17:51:50.180Z,46.01
2024-05-09T17:52:50.178Z,46.04
2024-05-09T17:53:50.138Z,46.50
2024-05-09T17:54:50.176Z,46.11
2024-05-09T17:55:50.143Z,46.21
2024-05-09T17:56:50.242Z,46.21
2024-05-09T17:57:50.249Z,46.21
2024-05-09T17:58:50.143Z,46.21
2024-05-09T17:59:50.123Z,46.79
2024-05-09T18:00:50.369Z,46.31
2024-05-09T18:01:50.177Z,46.60
2024-05-09T18:02:50.250Z,46.69
2024-05-09T18:03:50.362Z,46.69
2024-05-09T18:04:50.223Z,46.60
2024-05-09T18:05:50.346Z,46.69
2024-05-09T18:06:50.155Z,46.21
2024-05-09T18:07:50.118Z,46.60
2024-05-09T18:08:50.134Z,46.69
2024-05-09T18:09:50.193Z,46.58
2024-05-09T18:10:51.427Z,46.67
2024-05-09T18:11:50.246Z,46.77
2024-05-09T18:12:50.288Z,46.67
2024-05-09T18:13:50.118Z,46.67
2024-05-09T18:14:50.129Z,46.77
2024-05-09T18:15:50.161Z,46.96
2024-05-09T18:16:50.112Z,46.48
2024-05-09T18:17:50.243Z,46.58
2024-05-09T18:18:50.326Z,47.16
2024-05-09T18:19:50.175Z,46.67
2024-05-09T18:20:50.250Z,46.67
2024-05-09T18:21:50.155Z,46.28
2024-05-09T18:22:50.142Z,46.36
2024-05-09T18:23:50.129Z,46.38
2024-05-09T18:24:50.143Z,46.55
2024-05-09T18:25:50.116Z,46.65
2024-05-09T18:26:50.135Z,46.55
2024-05-09T18:27:50.182Z,46.65
2024-05-09T18:28:50.420Z,46.75
2024-05-09T18:29:50.113Z,46.84
2024-05-09T18:30:50.137Z,46.94
2024-05-09T18:31:50.105Z,47.13
2024-05-09T18:32:50.224Z,47.23
2024-05-09T18:33:50.322Z,46.75
2024-05-09T18:34:50.272Z,46.94
2024-05-09T18:35:50.103Z,46.94
2024-05-09T18:36:50.133Z,47.03
2024-05-09T18:37:50.124Z,46.94
2024-05-09T18:38:50.107Z,47.02
2024-05-09T18:39:50.122Z,46.92
2024-05-09T18:40:50.251Z,47.11
2024-05-09T18:41:50.094Z,46.82
2024-05-09T18:42:50.108Z,46.82
2024-05-09T18:43:51.035Z,46.92
2024-05-09T18:44:50.090Z,46.92
2024-05-09T18:45:50.103Z,47.11
2024-05-09T18:46:50.083Z,47.20
2024-05-09T18:47:50.153Z,47.02
2024-05-09T18:48:50.410Z,46.82
2024-05-09T18:49:50.129Z,47.20
2024-05-09T18:50:50.209Z,46.92
2024-05-09T18:51:50.167Z,47.30
2024-05-09T18:52:50.105Z,46.82
2024-05-09T18:53:50.130Z,47.20
2024-05-09T18:54:50.119Z,47.20
2024-05-09T18:55:50.090Z,47.40
2024-05-09T18:56:50.087Z,47.30
2024-05-09T18:57:50.113Z,47.19
2024-05-09T18:58:50.087Z,47.28
2024-05-09T18:59:50.066Z,47.09
2024-05-09T19:00:52.076Z,47.28
2024-05-09T19:01:50.156Z,47.38
2024-05-09T19:02:50.377Z,47.47
2024-05-09T19:03:50.251Z,47.47
2024-05-09T19:04:50.258Z,47.28
2024-05-09T19:05:50.245Z,47.47
2024-05-09T19:06:50.118Z,47.57
2024-05-09T19:07:50.117Z,47.28